createdAt,value
2018-03-11T00:00:31.653Z,83.90
2018-03-11T00:02:35.721Z,84.90
2018-03-11T00:04:40.108Z,88.20
2018-03-11T00:06:43.658Z,88.30
2018-03-11T00:08:47.190Z,84.00
2018-03-11T00:10:50.795Z,83.70
2018-03-11T00:12:54.328Z,84.10
2018-03-11T00:14:57.871Z,83.30
2018-03-11T00:17:01.457Z,86.10
2018-03-11T00:19:05.036Z,84.30
2018-03-11T00:21:09.352Z,84.60
2018-03-11T00:23:12.972Z,84.50
2018-03-11T00:25:16.534Z,87.10
2018-03-11T00:27:20.894Z,84.50
2018-03-11T00:29:24.441Z,84.50
2018-03-11T00:31:27.979Z,83.40
2018-03-11T00:33:31.610Z,83.50
2018-03-11T00:35:35.117Z,85.30
2018-03-11T00:37:38.708Z,84.20
2018-03-11T00:39:42.284Z,85.90
2018-03-11T00:41:45.812Z,85.00
2018-03-11T00:43:50.136Z,84.40
2018-03-11T00:45:54.487Z,84.00
2018-03-11T00:47:58.014Z,84.00
2018-03-11T00:50:01.587Z,84.70
2018-03-11T00:52:05.180Z,85.10
2018-03-11T00:54:09.485Z,86.00
2018-03-11T00:56:13.083Z,86.00
2018-03-11T00:58:16.600Z,87.80
2018-03-11T01:00:20.149Z,85.00
2018-03-11T01:02:24.495Z,85.10
2018-03-11T01:04:28.099Z,85.00
2018-03-11T01:06:31.663Z,84.00
2018-03-11T01:08:35.216Z,84.10
2018-03-11T01:10:38.785Z,84.30
2018-03-11T01:12:42.334Z,86.20
2018-03-11T01:14:46.609Z,84.30
2018-03-11T01:16:50.961Z,89.30
2018-03-11T01:18:55.280Z,85.70
2018-03-11T01:20:58.856Z,85.10
2018-03-11T01:23:03.252Z,84.70
2018-03-11T01:25:06.814Z,84.00
2018-03-11T01:27:10.357Z,88.50
2018-03-11T01:29:13.896Z,86.10
2018-03-11T01:31:17.493Z,84.70
2018-03-11T01:33:21.048Z,84.30
2018-03-11T01:35:25.349Z,84.30
2018-03-11T01:37:28.956Z,84.30
2018-03-11T01:39:32.508Z,83.90
2018-03-11T01:41:36.058Z,84.20
2018-03-11T01:43:40.436Z,90.10
2018-03-11T01:45:43.972Z,90.10
2018-03-11T01:47:48.314Z,86.40
2018-03-11T01:49:51.877Z,86.40
2018-03-11T01:51:55.382Z,87.70
2018-03-11T01:53:59.739Z,87.80
2018-03-11T01:56:03.246Z,88.10
2018-03-11T01:58:06.807Z,85.00
2018-03-11T02:00:10.413Z,85.40
2018-03-11T02:02:13.950Z,84.80
2018-03-11T02:04:17.539Z,86.10
2018-03-11T02:06:21.136Z,85.20
2018-03-11T02:08:24.708Z,84.60
2018-03-11T02:10:28.228Z,85.60
2018-03-11T02:12:31.801Z,84.50
2018-03-11T02:14:35.381Z,85.40
2018-03-11T02:16:38.974Z,84.50
2018-03-11T02:18:42.516Z,84.10
2018-03-11T02:20:46.862Z,87.80
2018-03-11T02:22:51.234Z,86.50
2018-03-11T02:24:54.753Z,86.40
2018-03-11T02:26:58.364Z,84.60
2018-03-11T02:29:02.742Z,86.30
2018-03-11T02:31:06.295Z,86.30
2018-03-11T02:33:09.932Z,87.90
2018-03-11T02:35:13.506Z,85.30
2018-03-11T02:37:17.052Z,84.60
2018-03-11T02:39:20.607Z,85.70
2018-03-11T02:41:24.168Z,84.20
2018-03-11T02:43:27.755Z,85.30
2018-03-11T02:45:39.996Z,86.60
2018-03-11T02:47:45.528Z,86.50
2018-03-11T02:49:49.137Z,85.50
2018-03-11T02:51:52.642Z,85.50
2018-03-11T02:53:56.205Z,90.60
2018-03-11T02:55:59.767Z,90.10
2018-03-11T02:58:03.323Z,90.10
2018-03-11T03:00:06.958Z,86.50
2018-03-11T03:02:11.264Z,90.30
2018-03-11T03:04:14.803Z,90.30
2018-03-11T03:06:18.359Z,91.60
2018-03-11T03:08:21.920Z,89.70
2018-03-11T03:10:25.486Z,87.70
2018-03-11T03:12:29.098Z,88.50
2018-03-11T03:14:32.656Z,90.00
2018-03-11T03:16:36.236Z,91.40
2018-03-11T03:18:39.719Z,92.00
2018-03-11T03:20:43.269Z,91.90
2018-03-11T03:22:46.871Z,91.80
2018-03-11T03:24:50.422Z,91.80
2018-03-11T03:26:54.735Z,93.00
2018-03-11T03:28:59.087Z,92.50
2018-03-11T03:31:02.626Z,92.40
2018-03-11T03:33:06.197Z,92.50
2018-03-11T03:35:09.744Z,92.30
2018-03-11T03:37:14.095Z,92.30
2018-03-11T03:39:17.655Z,92.30
2018-03-11T03:41:21.206Z,92.20
2018-03-11T03:43:24.779Z,92.90
2018-03-11T03:45:28.337Z,92.80
2018-03-11T03:47:32.690Z,92.70
2018-03-11T03:49:36.285Z,92.70
2018-03-11T03:51:39.828Z,91.40
2018-03-11T03:53:43.423Z,91.90
2018-03-11T03:55:47.034Z,91.80
2018-03-11T03:57:50.579Z,91.80
2018-03-11T03:59:54.151Z,93.00
2018-03-11T04:01:58.486Z,92.50
2018-03-11T04:04:02.003Z,92.50
2018-03-11T04:06:05.573Z,92.20
2018-03-11T04:08:09.172Z,93.00
2018-03-11T04:10:12.765Z,92.90
2018-03-11T04:12:16.285Z,93.30
2018-03-11T04:14:19.844Z,94.10
2018-03-11T04:16:24.157Z,93.20
2018-03-11T04:18:28.488Z,93.30
2018-03-11T04:20:32.017Z,93.30
2018-03-11T04:22:35.734Z,93.30
2018-03-11T04:24:39.257Z,93.20
2018-03-11T04:26:42.841Z,93.50
2018-03-11T04:28:47.169Z,93.80
2018-03-11T04:30:51.428Z,92.80
2018-03-11T04:32:55.011Z,92.80
2018-03-11T04:34:58.519Z,93.30
2018-03-11T04:37:02.274Z,93.20
2018-03-11T04:39:05.849Z,93.00
2018-03-11T04:41:09.382Z,93.10
2018-03-11T04:43:12.971Z,93.00
2018-03-11T04:45:16.537Z,93.30
2018-03-11T04:47:21.096Z,92.80
2018-03-11T04:49:24.793Z,92.80
2018-03-11T04:51:28.350Z,92.80
2018-03-11T04:53:34.389Z,92.70
2018-03-11T04:55:39.990Z,93.00
2018-03-11T04:57:43.909Z,93.40
2018-03-11T04:59:47.532Z,93.30
2018-03-11T05:01:51.055Z,93.40
2018-03-11T05:03:54.517Z,93.10
2018-03-11T05:05:58.122Z,93.40
2018-03-11T05:08:01.665Z,93.00
2018-03-11T05:10:05.652Z,93.60
2018-03-11T05:12:09.259Z,93.80
2018-03-11T05:14:12.784Z,92.80
2018-03-11T05:16:16.387Z,92.80
2018-03-11T05:18:20.006Z,92.90
2018-03-11T05:20:23.543Z,93.20
2018-03-11T05:22:27.162Z,92.90
2018-03-11T05:24:33.906Z,93.30
2018-03-11T05:26:38.282Z,93.90
2018-03-11T05:28:41.805Z,94.40
2018-03-11T05:30:45.322Z,93.80
2018-03-11T05:32:49.640Z,93.50
2018-03-11T05:34:53.182Z,93.50
2018-03-11T05:36:56.701Z,92.90
2018-03-11T05:39:01.046Z,92.80
2018-03-11T05:41:04.607Z,92.80
2018-03-11T05:43:08.955Z,92.20
2018-03-11T05:45:12.511Z,92.20
2018-03-11T05:47:21.818Z,92.20
2018-03-11T05:49:26.037Z,92.90
2018-03-11T05:51:29.799Z,92.50
2018-03-11T05:53:33.428Z,93.10
2018-03-11T05:55:37.229Z,92.90
2018-03-11T05:57:41.794Z,92.70
2018-03-11T05:59:45.462Z,92.60
2018-03-11T06:01:49.000Z,92.70
2018-03-11T06:03:52.590Z,92.80
2018-03-11T06:05:56.195Z,92.60
2018-03-11T06:07:59.779Z,92.80
2018-03-11T06:10:04.536Z,93.10
2018-03-11T06:12:09.614Z,92.90
2018-03-11T06:14:13.147Z,92.90
2018-03-11T06:16:16.704Z,92.90
2018-03-11T06:18:20.194Z,92.90
2018-03-11T06:20:24.495Z,92.80
2018-03-11T06:22:28.095Z,92.80
2018-03-11T06:24:31.671Z,92.90
2018-03-11T06:26:35.989Z,92.90
2018-03-11T06:28:39.526Z,92.90
2018-03-11T06:30:43.086Z,92.60
2018-03-11T06:32:46.673Z,92.90
2018-03-11T06:34:50.209Z,92.70
2018-03-11T06:36:54.091Z,92.30
2018-03-11T06:38:57.665Z,92.70
2018-03-11T06:41:01.209Z,92.50
2018-03-11T06:43:06.328Z,92.90
2018-03-11T06:45:09.948Z,92.60
2018-03-11T06:47:14.879Z,92.70
2018-03-11T06:49:24.516Z,93.10
2018-03-11T06:51:28.633Z,92.80
2018-03-11T06:53:32.350Z,93.10
2018-03-11T06:55:35.891Z,92.90
2018-03-11T06:57:40.254Z,93.30
2018-03-11T06:59:43.829Z,93.00
2018-03-11T07:01:49.023Z,93.10
2018-03-11T07:03:52.611Z,93.10
2018-03-11T07:05:58.417Z,92.70
2018-03-11T07:08:02.063Z,92.50
2018-03-11T07:10:06.506Z,92.90
2018-03-11T07:12:12.575Z,93.60
2018-03-11T07:14:16.905Z,94.60
2018-03-11T07:16:20.460Z,94.60
2018-03-11T07:18:23.954Z,94.60
2018-03-11T07:20:27.502Z,95.00
2018-03-11T07:22:31.013Z,95.00
2018-03-11T07:24:34.593Z,95.40
2018-03-11T07:26:38.163Z,94.90
2018-03-11T07:28:42.962Z,96.00
2018-03-11T07:30:46.659Z,95.90
2018-03-11T07:32:50.239Z,95.40
2018-03-11T07:34:53.766Z,94.80
2018-03-11T07:36:58.146Z,94.20
2018-03-11T07:39:01.690Z,94.20
2018-03-11T07:41:06.074Z,94.60
2018-03-11T07:43:10.422Z,94.70
2018-03-11T07:45:14.737Z,95.30
2018-03-11T07:47:20.857Z,95.30
2018-03-11T07:49:26.837Z,94.30
2018-03-11T07:51:31.190Z,94.30
2018-03-11T07:53:34.713Z,94.30
2018-03-11T07:55:42.289Z,93.10
2018-03-11T07:57:46.866Z,93.50
2018-03-11T07:59:50.469Z,94.00
2018-03-11T08:01:54.923Z,94.50
2018-03-11T08:03:58.599Z,94.10
2018-03-11T08:06:02.185Z,92.80
2018-03-11T08:08:05.765Z,93.70
2018-03-11T08:10:09.334Z,92.10
2018-03-11T08:12:12.881Z,93.90
2018-03-11T08:14:17.080Z,93.90
2018-03-11T08:16:20.768Z,94.30
2018-03-11T08:18:25.069Z,92.90
2018-03-11T08:20:28.603Z,93.00
2018-03-11T08:22:32.157Z,93.00
2018-03-11T08:24:36.484Z,92.00
2018-03-11T08:26:40.814Z,91.50
2018-03-11T08:28:44.375Z,91.50
2018-03-11T08:30:47.906Z,91.60
2018-03-11T08:32:51.509Z,93.00
2018-03-11T08:34:55.058Z,93.30
2018-03-11T08:36:59.391Z,94.20
2018-03-11T08:39:03.796Z,91.80
2018-03-11T08:41:07.395Z,91.90
2018-03-11T08:43:10.981Z,92.80
2018-03-11T08:45:14.508Z,94.60
2018-03-11T08:47:19.696Z,92.90
2018-03-11T08:49:24.996Z,91.70
2018-03-11T08:51:28.518Z,91.60
2018-03-11T08:53:32.089Z,94.10
2018-03-11T08:55:35.676Z,91.00
2018-03-11T08:57:39.269Z,91.20
2018-03-11T08:59:42.796Z,92.50
2018-03-11T09:01:46.344Z,90.90
2018-03-11T09:03:50.635Z,91.30
2018-03-11T09:05:54.211Z,91.20
2018-03-11T09:07:57.816Z,86.40
2018-03-11T09:10:01.384Z,88.30
2018-03-11T09:12:04.970Z,90.60
2018-03-11T09:14:08.574Z,87.00
2018-03-11T09:16:12.128Z,88.80
2018-03-11T09:18:15.753Z,91.60
2018-03-11T09:20:19.284Z,90.60
2018-03-11T09:22:22.793Z,87.90
2018-03-11T09:24:26.347Z,92.10
2018-03-11T09:26:29.930Z,92.70
2018-03-11T09:28:33.518Z,92.50
2018-03-11T09:30:37.174Z,92.50
2018-03-11T09:32:40.719Z,92.50
2018-03-11T09:34:44.275Z,92.20
2018-03-11T09:36:47.823Z,92.30
2018-03-11T09:38:51.331Z,93.10
2018-03-11T09:40:54.922Z,89.90
2018-03-11T09:42:58.531Z,91.20
2018-03-11T09:45:02.131Z,91.80
2018-03-11T09:47:05.720Z,88.40
2018-03-11T09:49:09.341Z,88.20
2018-03-11T09:51:12.875Z,88.70
2018-03-11T09:53:17.292Z,89.70
2018-03-11T09:55:21.578Z,84.70
2018-03-11T09:57:25.108Z,85.40
2018-03-11T09:59:29.389Z,87.00
2018-03-11T10:01:32.934Z,86.80
2018-03-11T10:03:36.807Z,90.80
2018-03-11T10:05:41.142Z,90.20
2018-03-11T10:07:44.688Z,90.10
2018-03-11T10:09:48.225Z,90.40
2018-03-11T10:11:51.833Z,90.80
2018-03-11T10:13:55.351Z,91.40
2018-03-11T10:15:58.916Z,89.90
2018-03-11T10:18:02.590Z,90.60
2018-03-11T10:20:06.105Z,90.70
2018-03-11T10:22:09.755Z,90.80
2018-03-11T10:24:13.284Z,91.20
2018-03-11T10:26:17.637Z,90.70
2018-03-11T10:28:21.171Z,90.70
2018-03-11T10:30:24.709Z,90.80
2018-03-11T10:32:28.281Z,90.20
2018-03-11T10:34:32.578Z,90.30
2018-03-11T10:36:36.094Z,90.30
2018-03-11T10:38:40.439Z,90.20
2018-03-11T10:40:44.001Z,90.10
2018-03-11T10:42:47.510Z,87.30
2018-03-11T10:44:51.095Z,89.00
2018-03-11T10:46:54.723Z,90.00
2018-03-11T10:48:58.563Z,89.70
2018-03-11T10:51:04.290Z,88.30
2018-03-11T10:53:08.034Z,88.20
2018-03-11T10:55:12.388Z,87.70
2018-03-11T10:57:15.954Z,87.70
2018-03-11T10:59:19.464Z,89.20
2018-03-11T11:01:23.067Z,89.30
2018-03-11T11:03:28.436Z,85.80
2018-03-11T11:05:31.943Z,85.50
2018-03-11T11:07:35.538Z,87.50
2018-03-11T11:09:39.048Z,87.80
2018-03-11T11:11:42.573Z,88.10
2018-03-11T11:13:46.185Z,88.00
2018-03-11T11:15:49.781Z,86.60
2018-03-11T11:17:53.355Z,84.70
2018-03-11T11:19:57.623Z,83.60
2018-03-11T11:22:01.213Z,83.60
2018-03-11T11:24:04.820Z,85.40
2018-03-11T11:26:08.410Z,85.70
2018-03-11T11:28:11.964Z,83.70
2018-03-11T11:30:16.257Z,84.90
2018-03-11T11:32:20.620Z,83.50
2018-03-11T11:34:24.160Z,82.90
2018-03-11T11:36:28.443Z,85.90
2018-03-11T11:38:32.046Z,86.00
2018-03-11T11:40:40.596Z,83.80
2018-03-11T11:42:45.437Z,86.30
2018-03-11T11:44:51.825Z,87.90
2018-03-11T11:46:57.103Z,88.20
2018-03-11T11:49:01.424Z,83.90
2018-03-11T11:51:05.814Z,85.50
2018-03-11T11:53:09.366Z,85.40
2018-03-11T11:55:13.004Z,85.50
2018-03-11T11:57:16.519Z,87.30
2018-03-11T11:59:20.839Z,83.90
2018-03-11T12:01:24.970Z,83.80
2018-03-11T12:03:28.738Z,85.00
2018-03-11T12:05:32.324Z,83.30
2018-03-11T12:07:35.917Z,82.80
2018-03-11T12:09:39.446Z,86.20
2018-03-11T12:11:46.814Z,85.20
2018-03-11T12:13:51.156Z,85.10
2018-03-11T12:15:55.926Z,85.60
2018-03-11T12:18:00.235Z,85.80
2018-03-11T12:20:04.758Z,85.90
2018-03-11T12:22:08.285Z,83.70
2018-03-11T12:24:12.593Z,86.30
2018-03-11T12:26:16.128Z,86.10
2018-03-11T12:28:19.659Z,84.10
2018-03-11T12:30:23.173Z,83.80
2018-03-11T12:32:26.688Z,83.50
2018-03-11T12:34:36.248Z,82.40
2018-03-11T12:36:40.036Z,84.80
2018-03-11T12:38:43.576Z,84.10
2018-03-11T12:40:52.829Z,85.10
2018-03-11T12:42:56.730Z,83.30
2018-03-11T12:45:00.250Z,84.20
2018-03-11T12:47:04.601Z,82.90
2018-03-11T12:49:08.837Z,82.80
2018-03-11T12:51:17.232Z,83.70
2018-03-11T12:53:21.552Z,84.50
2018-03-11T12:55:26.136Z,82.30
2018-03-11T12:57:31.677Z,82.50
2018-03-11T12:59:35.284Z,82.80
2018-03-11T13:01:38.872Z,82.30
2018-03-11T13:03:42.579Z,81.60
2018-03-11T13:05:46.781Z,81.40
2018-03-11T13:07:50.330Z,83.60
2018-03-11T13:09:53.861Z,82.10
2018-03-11T13:11:57.449Z,81.40
2018-03-11T13:14:05.017Z,82.60
2018-03-11T13:16:09.357Z,82.60
2018-03-11T13:18:12.961Z,85.90
2018-03-11T13:20:28.330Z,84.20
2018-03-11T13:22:32.917Z,82.00
2018-03-11T13:24:36.449Z,82.10
2018-03-11T13:26:40.737Z,81.70
2018-03-11T13:28:50.676Z,81.70
2018-03-11T13:30:54.756Z,81.70
2018-03-11T13:33:10.200Z,82.30
2018-03-11T13:35:13.794Z,81.70
2018-03-11T13:37:17.423Z,83.30
2018-03-11T13:39:32.726Z,82.90
2018-03-11T13:41:36.259Z,82.00
2018-03-11T13:43:41.068Z,82.90
2018-03-11T13:45:57.403Z,82.60
2018-03-11T13:48:01.056Z,82.10
2018-03-11T13:50:06.501Z,82.00
2018-03-11T13:52:22.065Z,81.90
2018-03-11T13:54:25.573Z,82.20
2018-03-11T13:56:29.086Z,83.80
2018-03-11T13:58:56.374Z,83.20
2018-03-11T14:01:08.869Z,82.90
2018-03-11T14:03:22.892Z,82.80
2018-03-11T14:05:36.275Z,82.30
2018-03-11T14:07:49.730Z,82.50
2018-03-11T14:10:03.777Z,82.40
2018-03-11T14:12:17.401Z,82.60
2018-03-11T14:14:37.298Z,83.20
2018-03-11T14:16:51.891Z,82.50
2018-03-11T14:19:06.501Z,83.10
2018-03-11T14:21:20.960Z,82.90
2018-03-11T14:23:39.886Z,83.70
2018-03-11T14:25:52.864Z,83.70
2018-03-11T14:28:08.709Z,82.60
2018-03-11T14:30:29.100Z,82.60
2018-03-11T14:32:43.384Z,82.60
2018-03-11T14:34:57.098Z,82.50
2018-03-11T14:37:11.192Z,82.50
2018-03-11T14:39:26.436Z,82.50
2018-03-11T14:41:42.976Z,84.40
2018-03-11T14:43:54.832Z,83.10
2018-03-11T14:46:09.963Z,82.50
2018-03-11T14:48:21.521Z,82.00
2018-03-11T14:50:32.937Z,82.20
2018-03-11T14:52:50.443Z,81.70
2018-03-11T14:55:09.858Z,81.70
2018-03-11T14:57:27.489Z,81.90
2018-03-11T14:59:44.331Z,82.40
2018-03-11T15:01:59.109Z,82.40
2018-03-11T15:04:15.793Z,82.00
2018-03-11T15:06:30.760Z,81.90
2018-03-11T15:08:46.925Z,82.00
2018-03-11T15:11:01.082Z,81.70
2018-03-11T15:13:15.414Z,81.90
2018-03-11T15:15:28.357Z,81.40
2018-03-11T15:17:41.410Z,81.20
2018-03-11T15:19:54.391Z,81.30
2018-03-11T15:22:06.064Z,81.30
2018-03-11T15:24:20.458Z,81.00
2018-03-11T15:31:28.150Z,81.20
2018-03-11T15:33:54.079Z,80.60
2018-03-11T15:36:11.717Z,80.80
2018-03-11T15:48:02.468Z,80.80
2018-03-11T15:50:16.632Z,80.50
2018-03-11T15:52:28.108Z,80.50
2018-03-11T15:54:40.327Z,80.10
2018-03-11T15:56:53.272Z,81.30
2018-03-11T15:59:08.259Z,80.40
2018-03-11T16:01:21.381Z,80.40
2018-03-11T16:03:35.180Z,80.50
2018-03-11T16:05:49.870Z,80.40
2018-03-11T16:08:02.596Z,80.60
2018-03-11T16:10:16.163Z,80.50
2018-03-11T16:12:30.314Z,80.10
2018-03-11T16:14:43.409Z,79.80
2018-03-11T16:17:01.306Z,80.00
2018-03-11T16:19:21.608Z,78.80
2018-03-11T16:21:35.642Z,79.80
2018-03-11T16:23:49.106Z,79.80
2018-03-11T16:26:03.175Z,79.80
2018-03-11T16:28:14.927Z,79.50
2018-03-11T16:30:29.856Z,79.50
2018-03-11T16:32:47.009Z,79.30
2018-03-11T16:34:53.927Z,79.80
2018-03-11T16:37:01.965Z,79.30
2018-03-11T16:39:10.695Z,79.80
2018-03-11T16:41:20.606Z,80.60
2018-03-11T16:43:31.525Z,79.90
2018-03-11T16:45:46.646Z,79.80
2018-03-11T16:47:56.602Z,79.80
2018-03-11T16:50:09.372Z,79.70
2018-03-11T16:52:26.169Z,79.80
2018-03-11T16:54:40.483Z,79.40
2018-03-11T16:56:57.567Z,79.40
2018-03-11T16:59:10.705Z,79.70
2018-03-11T17:01:26.634Z,79.70
2018-03-11T17:03:39.537Z,79.20
2018-03-11T17:05:54.685Z,79.40
2018-03-11T17:08:05.561Z,80.40
2018-03-11T17:10:19.565Z,80.70
2018-03-11T17:12:33.439Z,80.70
2018-03-11T17:14:52.747Z,80.00
2018-03-11T17:19:27.594Z,81.20
2018-03-11T17:21:39.967Z,80.20
2018-03-11T17:23:52.011Z,81.00
2018-03-11T17:26:03.643Z,81.70
2018-03-11T17:28:18.489Z,81.50
2018-03-11T17:30:31.949Z,82.00
2018-03-11T17:32:46.623Z,82.30
2018-03-11T17:34:59.428Z,82.90
2018-03-11T17:37:05.677Z,82.40
2018-03-11T17:39:09.162Z,82.40
2018-03-11T17:41:19.146Z,83.20
2018-03-11T17:43:32.456Z,85.00
2018-03-11T17:45:37.799Z,85.00
2018-03-11T17:47:50.259Z,85.80
2018-03-11T17:50:01.165Z,85.40
2018-03-11T17:52:09.839Z,85.80
2018-03-11T17:54:18.889Z,86.60
2018-03-11T17:56:28.969Z,86.50
2018-03-11T17:58:35.602Z,86.70
2018-03-11T18:00:50.666Z,87.80
2018-03-11T18:03:06.513Z,88.10
2018-03-11T18:05:19.654Z,88.80
2018-03-11T18:07:28.672Z,88.70
2018-03-11T18:09:33.045Z,88.70
2018-03-11T18:11:45.366Z,89.30
2018-03-11T18:14:03.146Z,88.60
2018-03-11T18:16:08.762Z,89.10
2018-03-11T18:18:27.967Z,89.40
2018-03-11T18:20:55.468Z,89.10
2018-03-11T18:23:10.629Z,89.80
2018-03-11T18:25:16.133Z,90.30
2018-03-11T18:27:20.446Z,91.80
2018-03-11T18:29:23.968Z,91.80
2018-03-11T18:31:27.475Z,91.30
2018-03-11T18:33:31.045Z,90.80
2018-03-11T18:35:35.360Z,91.20
2018-03-11T18:37:38.892Z,91.60
2018-03-11T18:39:42.377Z,90.40
2018-03-11T18:41:45.957Z,90.00
2018-03-11T18:43:49.517Z,90.80
2018-03-11T18:45:53.059Z,90.90
2018-03-11T18:47:56.601Z,91.40
2018-03-11T18:50:00.887Z,92.30
2018-03-11T18:52:04.427Z,92.00
2018-03-11T18:54:08.752Z,91.40
2018-03-11T18:56:13.087Z,91.50
2018-03-11T18:58:16.629Z,91.50
2018-03-11T19:00:20.089Z,91.30
2018-03-11T19:02:23.639Z,91.80
2018-03-11T19:04:28.030Z,91.00
2018-03-11T19:06:31.560Z,91.00
2018-03-11T19:08:35.874Z,90.70
2018-03-11T19:10:39.350Z,90.70
2018-03-11T19:12:43.718Z,91.50
2018-03-11T19:14:47.269Z,91.50
2018-03-11T19:16:51.655Z,90.50
2018-03-11T19:18:55.209Z,90.50
2018-03-11T19:20:58.714Z,91.00
2018-03-11T19:23:02.357Z,91.00
2018-03-11T19:25:05.908Z,91.60
2018-03-11T19:27:09.450Z,91.10
2018-03-11T19:29:13.801Z,90.80
2018-03-11T19:31:17.361Z,90.50
2018-03-11T19:33:20.834Z,90.70
2018-03-11T19:35:24.308Z,90.70
2018-03-11T19:37:33.768Z,91.30
2018-03-11T19:39:37.753Z,92.00
2018-03-11T19:41:41.820Z,91.70
2018-03-11T19:43:45.383Z,91.70
2018-03-11T19:45:49.678Z,91.60
2018-03-11T19:47:53.218Z,91.60
2018-03-11T19:49:56.742Z,91.40
2018-03-11T19:52:00.268Z,91.40
2018-03-11T19:54:03.872Z,91.80
2018-03-11T19:56:07.409Z,91.90
2018-03-11T19:58:11.857Z,91.40
2018-03-11T20:00:15.401Z,91.30
2018-03-11T20:02:19.660Z,90.80
2018-03-11T20:04:23.446Z,90.70
2018-03-11T20:06:27.018Z,91.00
2018-03-11T20:08:31.303Z,92.00
2018-03-11T20:10:34.849Z,92.00
2018-03-11T20:12:38.408Z,91.60
2018-03-11T20:14:41.920Z,92.10
2018-03-11T20:16:47.299Z,91.50
2018-03-11T20:18:51.899Z,91.50
2018-03-11T20:20:55.477Z,91.10
2018-03-11T20:22:59.784Z,90.40
2018-03-11T20:25:05.856Z,90.10
2018-03-11T20:27:09.429Z,90.10
2018-03-11T20:29:12.925Z,90.50
2018-03-11T20:31:16.564Z,90.50
2018-03-11T20:33:20.204Z,90.70
2018-03-11T20:35:24.498Z,90.70
2018-03-11T20:37:28.037Z,90.70
2018-03-11T20:39:32.330Z,91.30
2018-03-11T20:41:36.511Z,91.30
2018-03-11T20:43:40.820Z,91.00
2018-03-11T20:45:44.372Z,90.70
2018-03-11T20:47:47.864Z,90.50
2018-03-11T20:49:52.188Z,89.90
2018-03-11T20:51:55.728Z,89.80
2018-03-11T20:53:59.252Z,90.20
2018-03-11T20:56:03.623Z,90.10
2018-03-11T20:58:07.135Z,90.00
2018-03-11T21:00:10.657Z,90.70
2018-03-11T21:02:14.948Z,91.10
2018-03-11T21:04:18.448Z,91.00
2018-03-11T21:06:22.023Z,90.80
2018-03-11T21:08:25.575Z,90.70
2018-03-11T21:10:29.127Z,91.40
2018-03-11T21:12:33.486Z,90.20
2018-03-11T21:14:37.751Z,90.30
2018-03-11T21:16:41.253Z,90.30
2018-03-11T21:18:44.837Z,90.90
2018-03-11T21:20:48.381Z,92.00
2018-03-11T21:22:52.108Z,92.00
2018-03-11T21:24:55.760Z,92.50
2018-03-11T21:26:59.302Z,91.30
2018-03-11T21:29:02.836Z,91.00
2018-03-11T21:31:06.500Z,90.80
2018-03-11T21:33:09.979Z,90.60
2018-03-11T21:35:13.899Z,91.10
2018-03-11T21:37:17.455Z,91.20
2018-03-11T21:39:21.741Z,91.10
2018-03-11T21:41:25.282Z,91.00
2018-03-11T21:43:28.895Z,90.40
2018-03-11T21:45:32.386Z,91.30
2018-03-11T21:47:35.894Z,90.80
2018-03-11T21:49:39.424Z,91.10
2018-03-11T21:51:42.922Z,91.20
2018-03-11T21:53:46.482Z,92.20
2018-03-11T21:55:50.055Z,92.00
2018-03-11T21:57:53.601Z,92.50
2018-03-11T22:00:01.436Z,92.20
2018-03-11T22:02:05.203Z,91.50
2018-03-11T22:04:09.482Z,91.10
2018-03-11T22:06:13.189Z,90.70
2018-03-11T22:08:16.730Z,90.40
2018-03-11T22:10:24.475Z,90.50
2018-03-11T22:12:28.018Z,90.50
2018-03-11T22:14:32.657Z,90.70
2018-03-11T22:16:36.199Z,90.30
2018-03-11T22:18:40.041Z,90.70
2018-03-11T22:20:44.305Z,91.20
2018-03-11T22:22:48.258Z,91.20
2018-03-11T22:24:51.812Z,91.00
2018-03-11T22:26:55.508Z,91.00
2018-03-11T22:28:59.621Z,90.50
2018-03-11T22:31:03.320Z,90.40
2018-03-11T22:33:07.076Z,90.10
2018-03-11T22:35:10.573Z,89.80
2018-03-11T22:37:15.700Z,91.00
2018-03-11T22:39:19.599Z,90.90
2018-03-11T22:41:24.176Z,92.30
2018-03-11T22:43:28.423Z,91.10
2018-03-11T22:45:32.995Z,90.50
2018-03-11T22:47:37.675Z,90.60
2018-03-11T22:49:41.974Z,90.30
2018-03-11T22:51:46.350Z,90.10
2018-03-11T22:53:49.901Z,90.10
2018-03-11T22:55:54.155Z,90.20
2018-03-11T22:57:57.835Z,90.20
2018-03-11T23:00:04.419Z,90.40
2018-03-11T23:02:08.534Z,90.60
2018-03-11T23:04:12.967Z,90.40
2018-03-11T23:06:18.305Z,90.30
2018-03-11T23:08:22.685Z,90.30
2018-03-11T23:10:26.307Z,90.20
2018-03-11T23:12:31.043Z,90.30
2018-03-11T23:14:34.754Z,90.40
2018-03-11T23:16:38.570Z,90.10
2018-03-11T23:18:54.122Z,90.30
2018-03-11T23:20:57.723Z,90.60
2018-03-11T23:23:01.473Z,90.10
2018-03-11T23:25:05.974Z,91.80
2018-03-11T23:27:10.528Z,91.20
2018-03-11T23:29:14.422Z,91.00
2018-03-11T23:31:19.527Z,90.70
2018-03-11T23:33:24.460Z,90.70
2018-03-11T23:35:27.986Z,90.60
2018-03-11T23:37:31.541Z,90.30
2018-03-11T23:39:36.180Z,90.20
2018-03-11T23:41:39.898Z,90.20
2018-03-11T23:43:43.930Z,90.40
2018-03-11T23:45:48.281Z,90.30
2018-03-11T23:47:52.225Z,90.30
2018-03-11T23:49:55.935Z,90.10
2018-03-11T23:51:59.554Z,90.10
2018-03-11T23:54:03.107Z,90.00
2018-03-11T23:56:07.007Z,90.10
2018-03-11T23:58:10.657Z,90.10
